sensor_id;sensor_type;location;lat;lon;timestamp;P1;durP1;ratioP1;P2;durP2;ratioP2
17181;SDS011;8706;48.254;16.422;2024-03-07T00:00:08;7.80;;;7.10;;
17181;SDS011;8706;48.254;16.422;2024-03-07T00:02:42;7.73;;;7.03;;
17181;SDS011;8706;48.254;16.422;2024-03-07T00:05:10;7.83;;;7.13;;
17181;SDS011;8706;48.254;16.422;2024-03-07T00:07:38;7.33;;;6.73;;
17181;SDS011;8706;48.254;16.422;2024-03-07T00:10:05;8.37;;;7.57;;
17181;SDS011;8706;48.254;16.422;2024-03-07T00:12:33;8.70;;;7.50;;
17181;SDS011;8706;48.254;16.422;2024-03-07T00:15:00;7.73;;;7.03;;
17181;SDS011;8706;48.254;16.422;2024-03-07T00:17:27;8.10;;;7.30;;
17181;SDS011;8706;48.254;16.422;2024-03-07T00:19:54;7.70;;;7.00;;
17181;SDS011;8706;48.254;16.422;2024-03-07T00:22:23;7.67;;;6.93;;
17181;SDS011;8706;48.254;16.422;2024-03-07T00:24:52;6.97;;;6.37;;
17181;SDS011;8706;48.254;16.422;2024-03-07T00:27:18;7.83;;;7.13;;
17181;SDS011;8706;48.254;16.422;2024-03-07T00:29:45;7.40;;;6.70;;
17181;SDS011;8706;48.254;16.422;2024-03-07T00:32:18;6.73;;;6.17;;
17181;SDS011;8706;48.254;16.422;2024-03-07T00:34:45;7.97;;;7.27;;
17181;SDS011;8706;48.254;16.422;2024-03-07T00:37:12;7.23;;;6.60;;
17181;SDS011;8706;48.254;16.422;2024-03-07T00:39:40;7.33;;;6.73;;
17181;SDS011;8706;48.254;16.422;2024-03-07T00:42:07;7.37;;;6.77;;
17181;SDS011;8706;48.254;16.422;2024-03-07T00:44:34;7.30;;;6.70;;
17181;SDS011;8706;48.254;16.422;2024-03-07T00:47:01;7.30;;;6.60;;
17181;SDS011;8706;48.254;16.422;2024-03-07T00:49:29;7.83;;;7.13;;
17181;SDS011;8706;48.254;16.422;2024-03-07T00:51:58;7.07;;;6.40;;
17181;SDS011;8706;48.254;16.422;2024-03-07T00:54:25;8.00;;;7.30;;
17181;SDS011;8706;48.254;16.422;2024-03-07T00:56:53;7.13;;;6.53;;
17181;SDS011;8706;48.254;16.422;2024-03-07T00:59:21;7.47;;;6.77;;
17181;SDS011;8706;48.254;16.422;2024-03-07T01:01:48;6.87;;;6.27;;
17181;SDS011;8706;48.254;16.422;2024-03-07T01:04:15;7.40;;;6.80;;
17181;SDS011;8706;48.254;16.422;2024-03-07T01:06:42;6.97;;;6.27;;
17181;SDS011;8706;48.254;16.422;2024-03-07T01:09:09;7.27;;;6.57;;
17181;SDS011;8706;48.254;16.422;2024-03-07T01:11:39;7.03;;;6.43;;
17181;SDS011;8706;48.254;16.422;2024-03-07T01:14:08;7.23;;;6.60;;
17181;SDS011;8706;48.254;16.422;2024-03-07T01:16:35;7.00;;;6.40;;
17181;SDS011;8706;48.254;16.422;2024-03-07T01:19:01;7.63;;;6.93;;
17181;SDS011;8706;48.254;16.422;2024-03-07T01:21:30;7.23;;;6.63;;
17181;SDS011;8706;48.254;16.422;2024-03-07T01:23:58;7.47;;;6.77;;
17181;SDS011;8706;48.254;16.422;2024-03-07T01:26:25;7.57;;;6.87;;
17181;SDS011;8706;48.254;16.422;2024-03-07T01:28:52;7.07;;;6.37;;
17181;SDS011;8706;48.254;16.422;2024-03-07T01:31:21;7.37;;;6.77;;
17181;SDS011;8706;48.254;16.422;2024-03-07T01:33:48;7.60;;;6.90;;
17181;SDS011;8706;48.254;16.422;2024-03-07T01:36:15;6.97;;;6.47;;
17181;SDS011;8706;48.254;16.422;2024-03-07T01:38:42;7.60;;;6.90;;
17181;SDS011;8706;48.254;16.422;2024-03-07T01:41:09;6.87;;;6.27;;
17181;SDS011;8706;48.254;16.422;2024-03-07T01:43:36;6.93;;;6.33;;
17181;SDS011;8706;48.254;16.422;2024-03-07T01:46:03;6.87;;;6.27;;
17181;SDS011;8706;48.254;16.422;2024-03-07T01:48:32;7.07;;;6.47;;
17181;SDS011;8706;48.254;16.422;2024-03-07T01:50:59;7.10;;;6.50;;
17181;SDS011;8706;48.254;16.422;2024-03-07T01:53:29;7.20;;;6.57;;
17181;SDS011;8706;48.254;16.422;2024-03-07T01:55:57;7.10;;;6.50;;
17181;SDS011;8706;48.254;16.422;2024-03-07T01:58:25;7.30;;;6.60;;
17181;SDS011;8706;48.254;16.422;2024-03-07T02:00:52;6.70;;;6.10;;
17181;SDS011;8706;48.254;16.422;2024-03-07T02:03:19;6.63;;;6.03;;
17181;SDS011;8706;48.254;16.422;2024-03-07T02:05:48;6.77;;;6.23;;
17181;SDS011;8706;48.254;16.422;2024-03-07T02:08:16;6.80;;;6.10;;
17181;SDS011;8706;48.254;16.422;2024-03-07T02:10:42;7.23;;;6.60;;
17181;SDS011;8706;48.254;16.422;2024-03-07T02:13:09;6.97;;;6.30;;
17181;SDS011;8706;48.254;16.422;2024-03-07T02:15:37;6.83;;;6.23;;
17181;SDS011;8706;48.254;16.422;2024-03-07T02:18:03;7.03;;;6.40;;
17181;SDS011;8706;48.254;16.422;2024-03-07T02:20:30;7.50;;;6.90;;
17181;SDS011;8706;48.254;16.422;2024-03-07T02:22:59;6.27;;;5.70;;
17181;SDS011;8706;48.254;16.422;2024-03-07T02:25:26;6.60;;;6.00;;
17181;SDS011;8706;48.254;16.422;2024-03-07T02:27:53;7.13;;;6.53;;
17181;SDS011;8706;48.254;16.422;2024-03-07T02:30:19;6.67;;;6.07;;
17181;SDS011;8706;48.254;16.422;2024-03-07T02:32:46;7.23;;;6.53;;
17181;SDS011;8706;48.254;16.422;2024-03-07T02:35:17;6.80;;;6.20;;
17181;SDS011;8706;48.254;16.422;2024-03-07T02:37:45;6.83;;;6.20;;
17181;SDS011;8706;48.254;16.422;2024-03-07T02:40:14;6.60;;;6.00;;
17181;SDS011;8706;48.254;16.422;2024-03-07T02:42:41;6.43;;;5.87;;
17181;SDS011;8706;48.254;16.422;2024-03-07T02:45:08;7.00;;;6.30;;
17181;SDS011;8706;48.254;16.422;2024-03-07T02:47:39;7.13;;;6.43;;
17181;SDS011;8706;48.254;16.422;2024-03-07T02:50:09;6.63;;;6.03;;
17181;SDS011;8706;48.254;16.422;2024-03-07T02:52:36;6.93;;;6.23;;
17181;SDS011;8706;48.254;16.422;2024-03-07T02:55:04;6.90;;;6.30;;
17181;SDS011;8706;48.254;16.422;2024-03-07T02:57:36;7.00;;;6.40;;
17181;SDS011;8706;48.254;16.422;2024-03-07T03:00:03;6.53;;;5.93;;
17181;SDS011;8706;48.254;16.422;2024-03-07T03:02:38;6.43;;;5.93;;
17181;SDS011;8706;48.254;16.422;2024-03-07T03:05:06;6.67;;;6.07;;
17181;SDS011;8706;48.254;16.422;2024-03-07T03:07:34;6.70;;;6.10;;
17181;SDS011;8706;48.254;16.422;2024-03-07T03:10:02;6.30;;;5.80;;
17181;SDS011;8706;48.254;16.422;2024-03-07T03:12:35;6.40;;;5.80;;
17181;SDS011;8706;48.254;16.422;2024-03-07T03:15:04;7.43;;;6.73;;
17181;SDS011;8706;48.254;16.422;2024-03-07T03:17:34;6.57;;;5.97;;
17181;SDS011;8706;48.254;16.422;2024-03-07T03:20:01;6.63;;;6.03;;
17181;SDS011;8706;48.254;16.422;2024-03-07T03:22:34;6.60;;;6.00;;
17181;SDS011;8706;48.254;16.422;2024-03-07T03:25:02;6.47;;;5.97;;
17181;SDS011;8706;48.254;16.422;2024-03-07T03:27:29;6.63;;;6.03;;
17181;SDS011;8706;48.254;16.422;2024-03-07T03:29:57;6.37;;;5.77;;
17181;SDS011;8706;48.254;16.422;2024-03-07T03:32:25;6.57;;;6.03;;
17181;SDS011;8706;48.254;16.422;2024-03-07T03:34:52;6.70;;;6.10;;
17181;SDS011;8706;48.254;16.422;2024-03-07T03:37:19;6.20;;;5.70;;
17181;SDS011;8706;48.254;16.422;2024-03-07T03:39:46;7.20;;;6.60;;
17181;SDS011;8706;48.254;16.422;2024-03-07T03:42:14;6.33;;;5.80;;
17181;SDS011;8706;48.254;16.422;2024-03-07T03:44:42;6.40;;;5.80;;
17181;SDS011;8706;48.254;16.422;2024-03-07T03:47:10;6.17;;;5.67;;
17181;SDS011;8706;48.254;16.422;2024-03-07T03:49:37;6.33;;;5.80;;
17181;SDS011;8706;48.254;16.422;2024-03-07T03:52:04;6.30;;;5.80;;
17181;SDS011;8706;48.254;16.422;2024-03-07T03:54:31;6.23;;;5.73;;
17181;SDS011;8706;48.254;16.422;2024-03-07T03:56:58;6.40;;;5.90;;
17181;SDS011;8706;48.254;16.422;2024-03-07T03:59:25;6.27;;;5.77;;
17181;SDS011;8706;48.254;16.422;2024-03-07T04:01:52;6.10;;;5.53;;
17181;SDS011;8706;48.254;16.422;2024-03-07T04:04:20;5.93;;;5.43;;
17181;SDS011;8706;48.254;16.422;2024-03-07T04:06:48;6.43;;;5.87;;
17181;SDS011;8706;48.254;16.422;2024-03-07T04:09:14;6.07;;;5.57;;
17181;SDS011;8706;48.254;16.422;2024-03-07T04:11:44;5.97;;;5.47;;
17181;SDS011;8706;48.254;16.422;2024-03-07T04:14:11;6.10;;;5.60;;
17181;SDS011;8706;48.254;16.422;2024-03-07T04:16:38;6.40;;;5.80;;
17181;SDS011;8706;48.254;16.422;2024-03-07T04:19:05;6.13;;;5.63;;
17181;SDS011;8706;48.254;16.422;2024-03-07T04:21:35;6.50;;;6.00;;
17181;SDS011;8706;48.254;16.422;2024-03-07T04:24:02;6.27;;;5.77;;
17181;SDS011;8706;48.254;16.422;2024-03-07T04:26:29;6.37;;;5.87;;
17181;SDS011;8706;48.254;16.422;2024-03-07T04:28:56;6.63;;;6.03;;
17181;SDS011;8706;48.254;16.422;2024-03-07T04:31:23;6.47;;;5.90;;
17181;SDS011;8706;48.254;16.422;2024-03-07T04:33:50;6.20;;;5.70;;
17181;SDS011;8706;48.254;16.422;2024-03-07T04:36:17;7.13;;;6.53;;
17181;SDS011;8706;48.254;16.422;2024-03-07T04:38:45;6.33;;;5.83;;
17181;SDS011;8706;48.254;16.422;2024-03-07T04:41:12;6.83;;;6.23;;
17181;SDS011;8706;48.254;16.422;2024-03-07T04:43:40;5.90;;;5.40;;
17181;SDS011;8706;48.254;16.422;2024-03-07T04:46:07;6.17;;;5.67;;
17181;SDS011;8706;48.254;16.422;2024-03-07T04:48:34;5.97;;;5.47;;
17181;SDS011;8706;48.254;16.422;2024-03-07T04:51:01;5.83;;;5.33;;
17181;SDS011;8706;48.254;16.422;2024-03-07T04:53:29;5.83;;;5.33;;
17181;SDS011;8706;48.254;16.422;2024-03-07T04:55:58;6.33;;;5.77;;
17181;SDS011;8706;48.254;16.422;2024-03-07T04:58:25;6.70;;;6.10;;
17181;SDS011;8706;48.254;16.422;2024-03-07T05:00:52;6.00;;;5.50;;
17181;SDS011;8706;48.254;16.422;2024-03-07T05:03:19;6.40;;;5.80;;
17181;SDS011;8706;48.254;16.422;2024-03-07T05:05:45;5.63;;;5.13;;
17181;SDS011;8706;48.254;16.422;2024-03-07T05:08:12;6.43;;;5.83;;
17181;SDS011;8706;48.254;16.422;2024-03-07T05:10:39;5.83;;;5.33;;
17181;SDS011;8706;48.254;16.422;2024-03-07T05:13:08;6.30;;;5.73;;
17181;SDS011;8706;48.254;16.422;2024-03-07T05:15:35;6.50;;;6.00;;
17181;SDS011;8706;48.254;16.422;2024-03-07T05:18:02;6.27;;;5.77;;
17181;SDS011;8706;48.254;16.422;2024-03-07T05:20:29;6.10;;;5.60;;
17181;SDS011;8706;48.254;16.422;2024-03-07T05:22:56;5.87;;;5.37;;
17181;SDS011;8706;48.254;16.422;2024-03-07T05:25:24;5.87;;;5.37;;
17181;SDS011;8706;48.254;16.422;2024-03-07T05:27:51;5.67;;;5.23;;
17181;SDS011;8706;48.254;16.422;2024-03-07T05:30:20;5.80;;;5.30;;
17181;SDS011;8706;48.254;16.422;2024-03-07T05:32:49;6.53;;;5.93;;
17181;SDS011;8706;48.254;16.422;2024-03-07T05:35:16;5.80;;;5.30;;
17181;SDS011;8706;48.254;16.422;2024-03-07T05:37:43;5.43;;;5.00;;
17181;SDS011;8706;48.254;16.422;2024-03-07T05:40:12;5.90;;;5.40;;
17181;SDS011;8706;48.254;16.422;2024-03-07T05:42:39;6.53;;;5.93;;
17181;SDS011;8706;48.254;16.422;2024-03-07T05:45:06;5.63;;;5.13;;
17181;SDS011;8706;48.254;16.422;2024-03-07T05:47:35;6.07;;;5.57;;
17181;SDS011;8706;48.254;16.422;2024-03-07T05:50:02;5.83;;;5.33;;
17181;SDS011;8706;48.254;16.422;2024-03-07T05:52:32;6.30;;;5.80;;
17181;SDS011;8706;48.254;16.422;2024-03-07T05:54:59;6.00;;;5.60;;
17181;SDS011;8706;48.254;16.422;2024-03-07T05:57:26;5.90;;;5.40;;
17181;SDS011;8706;48.254;16.422;2024-03-07T05:59:53;5.57;;;5.07;;
17181;SDS011;8706;48.254;16.422;2024-03-07T06:02:21;5.97;;;5.47;;
17181;SDS011;8706;48.254;16.422;2024-03-07T06:04:49;6.03;;;5.53;;
17181;SDS011;8706;48.254;16.422;2024-03-07T06:07:16;5.93;;;5.43;;
17181;SDS011;8706;48.254;16.422;2024-03-07T06:09:43;5.60;;;5.10;;
17181;SDS011;8706;48.254;16.422;2024-03-07T06:12:10;6.30;;;5.80;;
17181;SDS011;8706;48.254;16.422;2024-03-07T06:14:38;5.93;;;5.43;;
17181;SDS011;8706;48.254;16.422;2024-03-07T06:17:04;5.37;;;4.97;;
17181;SDS011;8706;48.254;16.422;2024-03-07T06:19:31;5.97;;;5.47;;
17181;SDS011;8706;48.254;16.422;2024-03-07T06:21:59;6.53;;;6.07;;
17181;SDS011;8706;48.254;16.422;2024-03-07T06:24:31;5.43;;;5.03;;
17181;SDS011;8706;48.254;16.422;2024-03-07T06:26:58;6.33;;;5.83;;
17181;SDS011;8706;48.254;16.422;2024-03-07T06:29:28;5.80;;;5.30;;
17181;SDS011;8706;48.254;16.422;2024-03-07T06:31:55;6.20;;;5.70;;
17181;SDS011;8706;48.254;16.422;2024-03-07T06:34:23;5.80;;;5.30;;
17181;SDS011;8706;48.254;16.422;2024-03-07T06:36:50;5.90;;;5.40;;
17181;SDS011;8706;48.254;16.422;2024-03-07T06:39:19;5.93;;;5.53;;
17181;SDS011;8706;48.254;16.422;2024-03-07T06:41:47;5.87;;;5.37;;
17181;SDS011;8706;48.254;16.422;2024-03-07T06:44:14;6.10;;;5.60;;
17181;SDS011;8706;48.254;16.422;2024-03-07T06:46:42;5.80;;;5.30;;
17181;SDS011;8706;48.254;16.422;2024-03-07T06:49:10;5.87;;;5.37;;
17181;SDS011;8706;48.254;16.422;2024-03-07T06:51:37;6.10;;;5.60;;
17181;SDS011;8706;48.254;16.422;2024-03-07T06:54:04;5.30;;;4.90;;
17181;SDS011;8706;48.254;16.422;2024-03-07T06:56:33;5.47;;;5.07;;
17181;SDS011;8706;48.254;16.422;2024-03-07T06:58:59;6.17;;;5.67;;
17181;SDS011;8706;48.254;16.422;2024-03-07T07:01:29;5.70;;;5.20;;
17181;SDS011;8706;48.254;16.422;2024-03-07T07:03:56;5.30;;;4.90;;
17181;SDS011;8706;48.254;16.422;2024-03-07T07:06:23;5.43;;;5.03;;
17181;SDS011;8706;48.254;16.422;2024-03-07T07:08:53;5.90;;;5.50;;
17181;SDS011;8706;48.254;16.422;2024-03-07T07:11:19;5.70;;;5.23;;
17181;SDS011;8706;48.254;16.422;2024-03-07T07:13:48;5.40;;;5.00;;
17181;SDS011;8706;48.254;16.422;2024-03-07T07:16:15;5.50;;;5.10;;
17181;SDS011;8706;48.254;16.422;2024-03-07T07:18:43;5.63;;;5.13;;
17181;SDS011;8706;48.254;16.422;2024-03-07T07:21:10;5.27;;;4.83;;
17181;SDS011;8706;48.254;16.422;2024-03-07T07:23:40;5.37;;;4.87;;
17181;SDS011;8706;48.254;16.422;2024-03-07T07:26:07;5.60;;;5.20;;
17181;SDS011;8706;48.254;16.422;2024-03-07T07:28:34;5.53;;;5.13;;
17181;SDS011;8706;48.254;16.422;2024-03-07T07:31:03;5.30;;;4.90;;
17181;SDS011;8706;48.254;16.422;2024-03-07T07:33:30;5.43;;;5.03;;
17181;SDS011;8706;48.254;16.422;2024-03-07T07:35:57;5.23;;;4.83;;
17181;SDS011;8706;48.254;16.422;2024-03-07T07:38:24;5.20;;;4.80;;
17181;SDS011;8706;48.254;16.422;2024-03-07T07:40:51;5.30;;;4.90;;
17181;SDS011;8706;48.254;16.422;2024-03-07T07:43:18;5.40;;;5.00;;
17181;SDS011;8706;48.254;16.422;2024-03-07T07:45:45;5.70;;;5.20;;
17181;SDS011;8706;48.254;16.422;2024-03-07T07:48:13;5.43;;;5.03;;
17181;SDS011;8706;48.254;16.422;2024-03-07T07:50:41;5.30;;;4.90;;
17181;SDS011;8706;48.254;16.422;2024-03-07T07:53:08;5.47;;;5.00;;
17181;SDS011;8706;48.254;16.422;2024-03-07T07:55:35;6.00;;;5.50;;
17181;SDS011;8706;48.254;16.422;2024-03-07T07:58:03;5.37;;;4.97;;
17181;SDS011;8706;48.254;16.422;2024-03-07T08:00:30;5.77;;;5.27;;
17181;SDS011;8706;48.254;16.422;2024-03-07T08:02:58;5.97;;;5.47;;
17181;SDS011;8706;48.254;16.422;2024-03-07T08:05:27;5.63;;;5.23;;
17181;SDS011;8706;48.254;16.422;2024-03-07T08:07:55;5.40;;;5.00;;
17181;SDS011;8706;48.254;16.422;2024-03-07T08:10:23;5.20;;;4.80;;
17181;SDS011;8706;48.254;16.422;2024-03-07T08:12:53;5.17;;;4.77;;
17181;SDS011;8706;48.254;16.422;2024-03-07T08:15:20;5.37;;;4.97;;
17181;SDS011;8706;48.254;16.422;2024-03-07T08:17:48;5.57;;;5.07;;
17181;SDS011;8706;48.254;16.422;2024-03-07T08:20:17;5.30;;;4.90;;
17181;SDS011;8706;48.254;16.422;2024-03-07T08:22:47;5.23;;;4.83;;
17181;SDS011;8706;48.254;16.422;2024-03-07T08:25:16;4.73;;;4.33;;
17181;SDS011;8706;48.254;16.422;2024-03-07T08:27:44;5.10;;;4.70;;
17181;SDS011;8706;48.254;16.422;2024-03-07T08:30:12;4.73;;;4.33;;
17181;SDS011;8706;48.254;16.422;2024-03-07T08:32:39;4.87;;;4.47;;
17181;SDS011;8706;48.254;16.422;2024-03-07T08:35:07;4.80;;;4.40;;
17181;SDS011;8706;48.254;16.422;2024-03-07T08:37:35;5.60;;;5.20;;
17181;SDS011;8706;48.254;16.422;2024-03-07T08:40:04;5.10;;;4.70;;
17181;SDS011;8706;48.254;16.422;2024-03-07T08:42:33;5.40;;;5.00;;
17181;SDS011;8706;48.254;16.422;2024-03-07T08:45:00;5.50;;;5.10;;
17181;SDS011;8706;48.254;16.422;2024-03-07T08:47:29;4.80;;;4.40;;
17181;SDS011;8706;48.254;16.422;2024-03-07T08:49:56;5.13;;;4.70;;
17181;SDS011;8706;48.254;16.422;2024-03-07T08:52:24;5.13;;;4.73;;
17181;SDS011;8706;48.254;16.422;2024-03-07T08:54:50;4.93;;;4.53;;
17181;SDS011;8706;48.254;16.422;2024-03-07T08:57:19;4.53;;;4.20;;
17181;SDS011;8706;48.254;16.422;2024-03-07T08:59:47;5.03;;;4.63;;
17181;SDS011;8706;48.254;16.422;2024-03-07T09:02:14;4.70;;;4.30;;
17181;SDS011;8706;48.254;16.422;2024-03-07T09:04:41;4.70;;;4.30;;
17181;SDS011;8706;48.254;16.422;2024-03-07T09:07:08;5.30;;;4.90;;
17181;SDS011;8706;48.254;16.422;2024-03-07T09:09:35;4.90;;;4.50;;
17181;SDS011;8706;48.254;16.422;2024-03-07T09:12:02;5.10;;;4.70;;
17181;SDS011;8706;48.254;16.422;2024-03-07T09:14:31;5.20;;;4.80;;
17181;SDS011;8706;48.254;16.422;2024-03-07T09:16:58;5.07;;;4.67;;
17181;SDS011;8706;48.254;16.422;2024-03-07T09:19:25;5.07;;;4.67;;
17181;SDS011;8706;48.254;16.422;2024-03-07T09:21:53;5.20;;;4.70;;
17181;SDS011;8706;48.254;16.422;2024-03-07T09:24:20;4.57;;;4.27;;
17181;SDS011;8706;48.254;16.422;2024-03-07T09:26:48;4.97;;;4.57;;
17181;SDS011;8706;48.254;16.422;2024-03-07T09:29:15;4.87;;;4.47;;
17181;SDS011;8706;48.254;16.422;2024-03-07T09:31:44;5.33;;;4.83;;
17181;SDS011;8706;48.254;16.422;2024-03-07T09:34:11;4.60;;;4.30;;
17181;SDS011;8706;48.254;16.422;2024-03-07T09:36:39;5.17;;;4.77;;
17181;SDS011;8706;48.254;16.422;2024-03-07T09:39:07;4.37;;;4.07;;
17181;SDS011;8706;48.254;16.422;2024-03-07T09:41:34;4.90;;;4.50;;
17181;SDS011;8706;48.254;16.422;2024-03-07T09:44:01;4.87;;;4.47;;
17181;SDS011;8706;48.254;16.422;2024-03-07T09:46:29;5.50;;;5.10;;
17181;SDS011;8706;48.254;16.422;2024-03-07T09:48:58;4.73;;;4.33;;
17181;SDS011;8706;48.254;16.422;2024-03-07T09:51:27;4.77;;;4.37;;
17181;SDS011;8706;48.254;16.422;2024-03-07T09:53:56;4.90;;;4.50;;
17181;SDS011;8706;48.254;16.422;2024-03-07T09:56:24;5.00;;;4.60;;
17181;SDS011;8706;48.254;16.422;2024-03-07T09:58:53;4.90;;;4.50;;
17181;SDS011;8706;48.254;16.422;2024-03-07T10:01:24;5.50;;;5.00;;
17181;SDS011;8706;48.254;16.422;2024-03-07T10:03:52;5.90;;;5.40;;
17181;SDS011;8706;48.254;16.422;2024-03-07T10:06:30;4.73;;;4.33;;
17181;SDS011;8706;48.254;16.422;2024-03-07T10:08:58;5.00;;;4.60;;
17181;SDS011;8706;48.254;16.422;2024-03-07T10:11:26;4.37;;;4.07;;
17181;SDS011;8706;48.254;16.422;2024-03-07T10:13:53;4.30;;;4.00;;
17181;SDS011;8706;48.254;16.422;2024-03-07T10:16:20;4.97;;;4.57;;
17181;SDS011;8706;48.254;16.422;2024-03-07T10:18:48;4.83;;;4.43;;
17181;SDS011;8706;48.254;16.422;2024-03-07T10:21:18;4.63;;;4.30;;
17181;SDS011;8706;48.254;16.422;2024-03-07T10:23:45;4.63;;;4.27;;
17181;SDS011;8706;48.254;16.422;2024-03-07T10:26:12;4.47;;;4.17;;
17181;SDS011;8706;48.254;16.422;2024-03-07T10:28:40;4.77;;;4.37;;
17181;SDS011;8706;48.254;16.422;2024-03-07T10:31:06;4.70;;;4.30;;
17181;SDS011;8706;48.254;16.422;2024-03-07T10:33:36;4.53;;;4.23;;
17181;SDS011;8706;48.254;16.422;2024-03-07T10:36:04;4.20;;;3.90;;
17181;SDS011;8706;48.254;16.422;2024-03-07T10:38:36;4.67;;;4.27;;
17181;SDS011;8706;48.254;16.422;2024-03-07T10:41:03;4.47;;;4.17;;
17181;SDS011;8706;48.254;16.422;2024-03-07T10:43:34;4.87;;;4.47;;
17181;SDS011;8706;48.254;16.422;2024-03-07T10:46:07;4.90;;;4.60;;
17181;SDS011;8706;48.254;16.422;2024-03-07T10:48:37;4.53;;;4.20;;
17181;SDS011;8706;48.254;16.422;2024-03-07T10:51:06;4.47;;;4.17;;
17181;SDS011;8706;48.254;16.422;2024-03-07T10:53:40;4.60;;;4.30;;
17181;SDS011;8706;48.254;16.422;2024-03-07T10:56:26;4.80;;;4.43;;
17181;SDS011;8706;48.254;16.422;2024-03-07T10:59:01;4.60;;;4.30;;
17181;SDS011;8706;48.254;16.422;2024-03-07T11:01:39;4.03;;;3.73;;
17181;SDS011;8706;48.254;16.422;2024-03-07T11:04:14;4.70;;;4.30;;
17181;SDS011;8706;48.254;16.422;2024-03-07T11:06:43;4.40;;;4.10;;
17181;SDS011;8706;48.254;16.422;2024-03-07T11:09:11;4.70;;;4.30;;
17181;SDS011;8706;48.254;16.422;2024-03-07T11:11:39;4.90;;;4.50;;
17181;SDS011;8706;48.254;16.422;2024-03-07T11:14:08;4.50;;;4.20;;
17181;SDS011;8706;48.254;16.422;2024-03-07T11:16:37;4.80;;;4.47;;
17181;SDS011;8706;48.254;16.422;2024-03-07T11:19:18;4.53;;;4.13;;
17181;SDS011;8706;48.254;16.422;2024-03-07T11:21:46;4.37;;;4.07;;
17181;SDS011;8706;48.254;16.422;2024-03-07T11:24:23;4.47;;;4.17;;
17181;SDS011;8706;48.254;16.422;2024-03-07T11:26:54;4.93;;;4.60;;
17181;SDS011;8706;48.254;16.422;2024-03-07T11:29:41;4.53;;;4.23;;
17181;SDS011;8706;48.254;16.422;2024-03-07T11:32:10;5.00;;;4.60;;
17181;SDS011;8706;48.254;16.422;2024-03-07T11:34:38;4.60;;;4.30;;
17181;SDS011;8706;48.254;16.422;2024-03-07T11:37:07;4.37;;;4.07;;
17181;SDS011;8706;48.254;16.422;2024-03-07T11:39:44;4.57;;;4.27;;
17181;SDS011;8706;48.254;16.422;2024-03-07T11:42:23;4.80;;;4.40;;
17181;SDS011;8706;48.254;16.422;2024-03-07T11:44:55;4.37;;;4.07;;
17181;SDS011;8706;48.254;16.422;2024-03-07T11:47:23;4.60;;;4.20;;
17181;SDS011;8706;48.254;16.422;2024-03-07T11:49:50;4.47;;;4.17;;
17181;SDS011;8706;48.254;16.422;2024-03-07T11:52:17;4.17;;;3.87;;
17181;SDS011;8706;48.254;16.422;2024-03-07T11:54:46;4.47;;;4.17;;
17181;SDS011;8706;48.254;16.422;2024-03-07T11:57:15;4.90;;;4.50;;
17181;SDS011;8706;48.254;16.422;2024-03-07T11:59:44;4.13;;;3.83;;
17181;SDS011;8706;48.254;16.422;2024-03-07T12:02:17;4.63;;;4.23;;
17181;SDS011;8706;48.254;16.422;2024-03-07T12:04:46;4.23;;;3.93;;
17181;SDS011;8706;48.254;16.422;2024-03-07T12:07:13;4.83;;;4.43;;
17181;SDS011;8706;48.254;16.422;2024-03-07T12:09:42;4.40;;;4.10;;
17181;SDS011;8706;48.254;16.422;2024-03-07T12:12:11;4.90;;;4.50;;
17181;SDS011;8706;48.254;16.422;2024-03-07T12:14:38;5.37;;;4.97;;
17181;SDS011;8706;48.254;16.422;2024-03-07T12:17:06;4.70;;;4.30;;
17181;SDS011;8706;48.254;16.422;2024-03-07T12:19:33;5.10;;;4.70;;
17181;SDS011;8706;48.254;16.422;2024-03-07T12:22:00;4.67;;;4.37;;
17181;SDS011;8706;48.254;16.422;2024-03-07T12:24:28;4.60;;;4.20;;
17181;SDS011;8706;48.254;16.422;2024-03-07T12:27:04;4.77;;;4.40;;
17181;SDS011;8706;48.254;16.422;2024-03-07T12:29:33;4.53;;;4.23;;
17181;SDS011;8706;48.254;16.422;2024-03-07T12:32:02;4.10;;;3.80;;
17181;SDS011;8706;48.254;16.422;2024-03-07T12:34:31;5.37;;;4.97;;
17181;SDS011;8706;48.254;16.422;2024-03-07T12:37:01;4.63;;;4.33;;
17181;SDS011;8706;48.254;16.422;2024-03-07T12:39:31;4.27;;;3.97;;
17181;SDS011;8706;48.254;16.422;2024-03-07T12:42:02;4.80;;;4.40;;
17181;SDS011;8706;48.254;16.422;2024-03-07T12:44:40;4.97;;;4.57;;
17181;SDS011;8706;48.254;16.422;2024-03-07T12:47:09;4.50;;;4.20;;
17181;SDS011;8706;48.254;16.422;2024-03-07T12:49:36;4.60;;;4.30;;
17181;SDS011;8706;48.254;16.422;2024-03-07T12:52:04;4.73;;;4.33;;
17181;SDS011;8706;48.254;16.422;2024-03-07T12:54:33;5.20;;;4.80;;
17181;SDS011;8706;48.254;16.422;2024-03-07T12:57:02;4.87;;;4.57;;
17181;SDS011;8706;48.254;16.422;2024-03-07T12:59:30;4.77;;;4.43;;
17181;SDS011;8706;48.254;16.422;2024-03-07T13:01:59;4.40;;;4.10;;
17181;SDS011;8706;48.254;16.422;2024-03-07T13:04:26;4.83;;;4.53;;
17181;SDS011;8706;48.254;16.422;2024-03-07T13:06:53;5.07;;;4.67;;
17181;SDS011;8706;48.254;16.422;2024-03-07T13:09:24;4.93;;;4.53;;
17181;SDS011;8706;48.254;16.422;2024-03-07T13:11:53;4.77;;;4.40;;
17181;SDS011;8706;48.254;16.422;2024-03-07T13:14:20;4.73;;;4.40;;
17181;SDS011;8706;48.254;16.422;2024-03-07T13:16:47;4.53;;;4.23;;
17181;SDS011;8706;48.254;16.422;2024-03-07T13:19:16;5.17;;;4.77;;
17181;SDS011;8706;48.254;16.422;2024-03-07T13:21:46;4.83;;;4.43;;
17181;SDS011;8706;48.254;16.422;2024-03-07T13:24:14;4.27;;;3.97;;
17181;SDS011;8706;48.254;16.422;2024-03-07T13:26:42;4.40;;;4.10;;
17181;SDS011;8706;48.254;16.422;2024-03-07T13:29:09;4.37;;;4.07;;
17181;SDS011;8706;48.254;16.422;2024-03-07T13:31:37;4.57;;;4.17;;
17181;SDS011;8706;48.254;16.422;2024-03-07T13:34:05;4.50;;;4.20;;
17181;SDS011;8706;48.254;16.422;2024-03-07T13:36:39;4.73;;;4.33;;
17181;SDS011;8706;48.254;16.422;2024-03-07T13:39:07;4.60;;;4.20;;
17181;SDS011;8706;48.254;16.422;2024-03-07T13:41:36;4.53;;;4.23;;
17181;SDS011;8706;48.254;16.422;2024-03-07T13:44:03;4.90;;;4.50;;
17181;SDS011;8706;48.254;16.422;2024-03-07T13:46:30;5.03;;;4.63;;
17181;SDS011;8706;48.254;16.422;2024-03-07T13:48:58;4.67;;;4.30;;
17181;SDS011;8706;48.254;16.422;2024-03-07T13:51:32;4.70;;;4.40;;
17181;SDS011;8706;48.254;16.422;2024-03-07T13:54:01;4.77;;;4.47;;
17181;SDS011;8706;48.254;16.422;2024-03-07T13:56:52;4.80;;;4.40;;
17181;SDS011;8706;48.254;16.422;2024-03-07T13:59:37;4.67;;;4.27;;
17181;SDS011;8706;48.254;16.422;2024-03-07T14:02:48;4.57;;;4.20;;
17181;SDS011;8706;48.254;16.422;2024-03-07T14:05:52;4.60;;;4.30;;
17181;SDS011;8706;48.254;16.422;2024-03-07T14:11:41;5.03;;;4.63;;
17181;SDS011;8706;48.254;16.422;2024-03-07T14:20:59;4.70;;;4.40;;
17181;SDS011;8706;48.254;16.422;2024-03-07T14:29:41;4.17;;;3.87;;
17181;SDS011;8706;48.254;16.422;2024-03-07T14:32:12;4.60;;;4.30;;
17181;SDS011;8706;48.254;16.422;2024-03-07T14:34:45;5.87;;;5.47;;
17181;SDS011;8706;48.254;16.422;2024-03-07T14:37:21;4.60;;;4.20;;
17181;SDS011;8706;48.254;16.422;2024-03-07T14:39:51;5.47;;;5.07;;
17181;SDS011;8706;48.254;16.422;2024-03-07T14:42:21;5.50;;;5.10;;
17181;SDS011;8706;48.254;16.422;2024-03-07T14:44:50;5.03;;;4.63;;
17181;SDS011;8706;48.254;16.422;2024-03-07T14:47:19;4.57;;;4.17;;
17181;SDS011;8706;48.254;16.422;2024-03-07T14:49:46;4.87;;;4.47;;
17181;SDS011;8706;48.254;16.422;2024-03-07T14:52:14;5.10;;;4.67;;
17181;SDS011;8706;48.254;16.422;2024-03-07T14:54:42;4.77;;;4.37;;
17181;SDS011;8706;48.254;16.422;2024-03-07T14:57:09;4.17;;;3.87;;
17181;SDS011;8706;48.254;16.422;2024-03-07T14:59:36;4.60;;;4.20;;
17181;SDS011;8706;48.254;16.422;2024-03-07T15:02:07;5.00;;;4.60;;
17181;SDS011;8706;48.254;16.422;2024-03-07T15:04:36;5.40;;;4.90;;
17181;SDS011;8706;48.254;16.422;2024-03-07T15:07:04;5.03;;;4.63;;
17181;SDS011;8706;48.254;16.422;2024-03-07T15:09:34;5.20;;;4.80;;
17181;SDS011;8706;48.254;16.422;2024-03-07T15:12:01;5.07;;;4.57;;